Time;durP1;ratioP1;P1;durP2;ratioP2;P2;SDS_P1;SDS_P2;PMS_P1;PMS_P2;Temp;Humidity;BMP_temperature;BMP_pressure;BME280_temperature;BME280_humidity;BME280_pressure;Samples;Min_cycle;Max_cycle;Signal;HPM_P1;HPM_P2
2021/11/04 00:01:44;;;;;;;29.70;15.53;;;;;;;9.01;80.20;99344.20;1729804;83;21938;-86
2021/11/04 00:04:10;;;;;;;29.23;15.75;;;;;;;9.02;80.18;99349.84;1729785;82;21046;-86
2021/11/04 00:06:36;;;;;;;33.67;16.85;;;;;;;9.03;80.16;99340.87;1730034;82;20998;-87
2021/11/04 00:09:02;;;;;;;33.08;15.45;;;;;;;9.04;80.12;99337.20;1729975;82;21015;-86
2021/11/04 00:11:28;;;;;;;25.10;13.90;;;;;;;9.02;80.06;99328.58;1730037;82;21084;-86
2021/11/04 00:13:54;;;;;;;29.35;14.85;;;;;;;9.02;80.05;99320.59;1730178;83;21539;-86
2021/11/04 00:16:20;;;;;;;32.98;15.05;;;;;;;9.01;80.01;99324.26;1730201;82;21034;-86
2021/11/04 00:18:47;;;;;;;29.72;16.32;;;;;;;9.01;79.98;99336.22;1738477;80;20986;-86
2021/11/04 00:21:13;;;;;;;32.03;15.95;;;;;;;9.00;79.96;99339.91;1760067;80;21037;-85
2021/11/04 00:23:39;;;;;;;31.60;16.17;;;;;;;8.99;79.93;99339.59;1760320;81;21011;-86
2021/11/04 00:26:05;;;;;;;30.17;15.15;;;;;;;8.98;79.92;99331.28;1760294;81;21698;-86
2021/11/04 00:28:31;;;;;;;25.55;14.00;;;;;;;8.98;79.91;99332.61;1750563;81;20996;-86
2021/11/04 00:30:57;;;;;;;28.45;16.55;;;;;;;8.96;79.89;99342.62;1760256;81;21016;-86
2021/11/04 00:33:23;;;;;;;30.32;16.82;;;;;;;8.95;79.87;99343.13;1760444;81;21256;-86
2021/11/04 00:35:49;;;;;;;27.10;14.60;;;;;;;8.94;79.87;99337.97;1759691;81;21450;-86
2021/11/04 00:38:15;;;;;;;27.32;15.23;;;;;;;8.93;79.84;99329.70;1760484;81;21078;-86
2021/11/04 00:40:41;;;;;;;29.05;13.88;;;;;;;8.92;79.83;99326.71;1759864;81;21038;-86
2021/11/04 00:43:07;;;;;;;26.45;13.72;;;;;;;8.92;79.83;99321.39;1760097;81;21058;-86
2021/11/04 00:45:33;;;;;;;23.85;13.08;;;;;;;8.93;79.81;99319.06;1747688;81;21027;-86
2021/11/04 00:47:59;;;;;;;24.47;13.40;;;;;;;8.92;79.81;99305.44;1729735;82;21067;-87
2021/11/04 00:50:25;;;;;;;21.55;12.93;;;;;;;8.91;79.79;99307.77;1758423;81;21867;-87
2021/11/04 00:52:52;;;;;;;25.65;14.13;;;;;;;8.91;79.79;99314.42;1759937;81;21538;-86
2021/11/04 00:55:18;;;;;;;25.10;13.98;;;;;;;8.90;79.76;99319.44;1760357;80;21085;-86
2021/11/04 00:57:44;;;;;;;39.65;17.45;;;;;;;8.89;79.78;99313.30;1760342;81;20987;-86
2021/11/04 01:00:13;;;;;;;35.28;15.58;;;;;;;8.89;79.75;99310.63;1756914;81;21074;-86
2021/11/04 01:02:40;;;;;;;31.05;13.75;;;;;;;8.89;79.76;99299.17;1729965;83;21186;-86
2021/11/04 01:05:06;;;;;;;27.22;14.58;;;;;;;8.88;79.76;99292.20;1729843;82;21051;-86
2021/11/04 01:07:32;;;;;;;26.50;13.95;;;;;;;8.86;79.75;99290.24;1730118;83;21067;-86
2021/11/04 01:09:59;;;;;;;25.85;13.30;;;;;;;8.83;79.75;99289.29;1729826;81;21091;-86
2021/11/04 01:12:25;;;;;;;24.30;12.78;;;;;;;8.80;79.74;99277.67;1730133;83;21071;-86
2021/11/04 01:14:51;;;;;;;20.72;12.90;;;;;;;8.77;79.75;99283.36;1730100;83;21147;-86
2021/11/04 01:17:16;;;;;;;24.37;12.35;;;;;;;8.73;79.78;99267.47;1730090;82;21056;-86
2021/11/04 01:19:43;;;;;;;22.42;12.90;;;;;;;8.71;79.78;99262.85;1730098;81;21461;-86
2021/11/04 01:22:08;;;;;;;22.55;11.53;;;;;;;8.59;79.74;99232.43;1729747;81;21563;-86
2021/11/04 01:24:34;;;;;;;20.97;10.80;;;;;;;8.59;79.74;99232.43;1730273;82;21035;-86
2021/11/04 01:27:01;;;;;;;21.93;11.22;;;;;;;8.68;79.78;99245.45;1729911;83;21166;-85
2021/11/04 01:29:27;;;;;;;20.50;10.20;;;;;;;8.69;79.78;99240.97;1729898;83;21048;-86
2021/11/04 01:31:53;;;;;;;21.48;11.10;;;;;;;8.71;79.79;99234.95;1730157;82;21020;-86
2021/11/04 01:34:19;;;;;;;20.05;11.35;;;;;;;8.71;79.80;99229.63;1756814;81;21498;-86
2021/11/04 01:36:45;;;;;;;24.02;11.12;;;;;;;8.71;79.80;99230.45;1759798;81;21045;-86
2021/11/04 01:39:11;;;;;;;19.40;11.43;;;;;;;8.70;79.79;99227.47;1760254;81;21582;-86
2021/11/04 01:41:37;;;;;;;23.73;13.13;;;;;;;8.70;79.82;99220.00;1759688;81;20958;-86
2021/11/04 01:44:04;;;;;;;17.75;10.82;;;;;;;8.69;79.84;99223.69;1760261;81;21032;-86
2021/11/04 01:46:30;;;;;;;23.45;12.47;;;;;;;8.72;79.84;99222.81;1760339;81;20987;-86
2021/11/04 01:48:56;;;;;;;19.98;11.03;;;;;;;8.75;79.84;99216.28;1741005;81;21050;-86
2021/11/04 01:51:23;;;;;;;21.73;11.15;;;;;;;8.76;79.83;99213.95;1760670;81;22151;-86
2021/11/04 01:53:49;;;;;;;21.17;12.03;;;;;;;8.78;79.83;99208.77;1760206;81;21062;-86
2021/11/04 01:56:15;;;;;;;22.98;12.37;;;;;;;8.77;79.84;99201.79;1760144;81;21101;-85
2021/11/04 01:58:41;;;;;;;17.27;11.50;;;;;;;8.78;79.85;99193.31;1760318;81;20975;-86
2021/11/04 02:01:07;;;;;;;18.75;11.85;;;;;;;8.79;79.85;99181.68;1760181;81;21494;-85
2021/11/04 02:03:42;;;;;;;19.35;10.70;;;;;;;8.80;79.87;99178.81;1760276;81;21875;-86
2021/11/04 02:06:27;;;;;;;21.17;10.75;;;;;;;8.83;79.87;99178.97;1739249;80;21058;-86
2021/11/04 02:09:05;;;;;;;20.43;12.13;;;;;;;8.85;79.87;99175.60;1730023;82;21113;-86
2021/11/04 02:11:41;;;;;;;27.37;12.33;;;;;;;8.86;79.88;99170.61;1730112;83;21066;-86
2021/11/04 02:14:14;;;;;;;21.05;11.75;;;;;;;8.89;79.87;99171.56;1711933;83;21498;-86
2021/11/04 02:16:40;;;;;;;17.35;10.53;;;;;;;8.91;79.89;99166.86;1730007;82;21805;-86
2021/11/04 02:19:35;;;;;;;22.20;11.10;;;;;;;8.93;79.87;99163.53;1729382;81;21077;-86
2021/11/04 02:22:02;;;;;;;20.43;11.45;;;;;;;8.98;79.87;99163.77;1729725;82;21037;-86
2021/11/04 02:24:45;;;;;;;19.77;11.00;;;;;;;9.01;79.85;99168.20;1730101;81;21590;-86
2021/11/04 02:27:12;;;;;;;22.45;10.60;;;;;;;9.02;79.86;99165.03;1751845;81;21474;-86
2021/11/04 02:29:40;;;;;;;19.05;10.95;;;;;;;9.05;79.86;99158.00;1760254;81;21847;-86
2021/11/04 02:32:07;;;;;;;21.42;10.68;;;;;;;9.08;79.85;99154.95;1760406;81;20999;-86
2021/11/04 02:34:33;;;;;;;19.45;11.35;;;;;;;9.10;79.84;99152.95;1760343;81;21002;-86
2021/11/04 02:37:00;;;;;;;20.35;11.10;;;;;;;9.14;79.84;99146.23;1757319;81;21486;-86
2021/11/04 02:39:26;;;;;;;21.95;10.00;;;;;;;9.16;79.83;99141.53;1732218;81;21038;-86
2021/11/04 02:41:53;;;;;;;22.60;11.20;;;;;;;9.19;79.83;99146.97;1730289;82;21125;-86
2021/11/04 02:44:19;;;;;;;22.42;12.28;;;;;;;9.19;79.80;99144.31;1730032;81;21495;-86
2021/11/04 02:46:45;;;;;;;17.27;10.53;;;;;;;9.21;79.82;99142.30;1730281;82;21479;-86
2021/11/04 02:49:11;;;;;;;19.27;9.78;;;;;;;9.25;79.83;99140.41;1729698;81;21077;-87
2021/11/04 02:51:37;;;;;;;21.10;11.00;;;;;;;9.30;79.80;99129.16;1730197;82;21093;-85
2021/11/04 02:54:07;;;;;;;21.70;10.50;;;;;;;9.33;79.80;99123.45;1729908;83;21452;-86
2021/11/04 02:56:47;;;;;;;18.80;10.78;;;;;;;9.36;79.78;99126.55;1730280;83;20998;-86
2021/11/04 02:59:14;;;;;;;19.82;10.35;;;;;;;9.34;79.78;99120.61;1730129;83;21042;-87
2021/11/04 03:01:43;;;;;;;22.30;9.83;;;;;;;9.36;79.78;99115.91;1730036;82;21510;-86
2021/11/04 03:04:10;;;;;;;19.02;10.28;;;;;;;9.38;79.76;99108.57;1730025;82;21487;-87
2021/11/04 03:06:36;;;;;;;20.57;10.78;;;;;;;9.40;79.74;99099.88;1760036;81;21637;-86
2021/11/04 03:09:03;;;;;;;23.15;10.63;;;;;;;9.39;79.72;99094.23;1760271;81;20995;-86
2021/11/04 03:11:29;;;;;;;18.32;10.75;;;;;;;9.39;79.73;99099.55;1730119;81;21010;-86
2021/11/04 03:13:55;;;;;;;19.10;10.10;;;;;;;9.38;79.71;99100.59;1730439;81;21070;-86
2021/11/04 03:16:21;;;;;;;23.40;11.88;;;;;;;9.38;79.72;99107.75;1730490;81;20979;-86
2021/11/04 03:18:47;;;;;;;19.70;11.28;;;;;;;9.37;79.71;99111.41;1730133;82;21760;-86
2021/11/04 03:21:14;;;;;;;19.85;10.55;;;;;;;9.37;79.70;99116.73;1730708;82;21049;-86
2021/11/04 03:23:40;;;;;;;15.93;9.40;;;;;;;9.36;79.69;99115.91;1732734;82;21006;-86
2021/11/04 03:26:07;;;;;;;22.15;11.10;;;;;;;9.36;79.71;99113.25;1732981;82;21097;-86
2021/11/04 03:28:33;;;;;;;18.32;10.28;;;;;;;9.38;79.71;99117.88;1732854;82;21022;-86
2021/11/04 03:31:00;;;;;;;18.07;9.90;;;;;;;9.40;79.73;99113.18;1733119;82;21087;-86
2021/11/04 03:33:27;;;;;;;18.05;11.00;;;;;;;9.43;79.74;99112.78;1732912;82;21017;-86
2021/11/04 03:35:55;;;;;;;19.65;9.93;;;;;;;9.45;79.74;99113.94;1732843;81;21038;-86
2021/11/04 03:38:21;;;;;;;24.98;12.13;;;;;;;9.45;79.73;99112.10;1732991;82;21053;-86
2021/11/04 03:40:47;;;;;;;17.95;10.88;;;;;;;9.46;79.74;99115.59;1732834;82;21066;-86
2021/11/04 03:43:13;;;;;;;19.70;10.43;;;;;;;9.45;79.73;99124.58;1756350;81;21550;-86
2021/11/04 03:45:39;;;;;;;17.75;10.35;;;;;;;9.46;79.76;99126.23;1763376;80;21462;-86
2021/11/04 03:48:06;;;;;;;18.77;10.60;;;;;;;9.47;79.78;99118.55;1763348;80;21046;-86
2021/11/04 03:50:33;;;;;;;20.92;10.65;;;;;;;9.47;79.78;99114.05;1762775;81;21452;-86
2021/11/04 03:52:59;;;;;;;18.15;10.85;;;;;;;9.48;79.81;99110.38;1763213;81;21062;-86
2021/11/04 03:55:25;;;;;;;18.20;11.22;;;;;;;9.49;79.80;99108.55;1763010;80;21127;-86
2021/11/04 03:57:52;;;;;;;22.42;10.35;;;;;;;9.50;79.84;99104.84;1763151;80;20987;-86
2021/11/04 04:00:18;;;;;;;20.08;10.38;;;;;;;9.50;79.86;99106.17;1763378;80;20995;-86
2021/11/04 04:02:47;;;;;;;20.68;11.10;;;;;;;9.53;79.90;99111.93;1754843;81;21042;-86
2021/11/04 04:05:13;;;;;;;18.73;10.27;;;;;;;9.52;79.92;99102.33;1756896;81;21050;-86
2021/11/04 04:07:39;;;;;;;22.90;10.80;;;;;;;9.52;79.94;99104.98;1763184;80;21039;-86
2021/11/04 04:10:05;;;;;;;20.40;11.70;;;;;;;9.53;79.98;99106.61;1763405;81;21062;-86
2021/11/04 04:12:31;;;;;;;19.73;11.45;;;;;;;9.54;79.99;99099.45;1763324;81;21030;-86
2021/11/04 04:14:58;;;;;;;20.40;10.20;;;;;;;9.54;80.03;99094.13;1746545;80;21038;-86
2021/11/04 04:17:24;;;;;;;23.62;11.10;;;;;;;9.54;80.07;99088.30;1732969;82;20987;-86
2021/11/04 04:19:50;;;;;;;18.73;11.50;;;;;;;9.54;80.10;99088.80;1732922;82;21070;-86
2021/11/04 04:22:17;;;;;;;16.90;10.75;;;;;;;9.55;80.15;99093.12;1731322;82;21050;-86
2021/11/04 04:24:43;;;;;;;19.02;10.15;;;;;;;9.56;80.16;99093.95;1730023;81;21003;-86
2021/11/04 04:27:11;;;;;;;18.95;10.68;;;;;;;9.55;80.19;99093.12;1730118;83;21233;-85
2021/11/04 04:29:37;;;;;;;19.20;13.05;;;;;;;9.57;80.23;99095.59;1729888;82;21113;-86
2021/11/04 04:32:03;;;;;;;19.15;11.18;;;;;;;9.56;80.26;99089.45;1729992;82;21085;-86
2021/11/04 04:34:30;;;;;;;19.65;10.95;;;;;;;9.57;80.30;99087.61;1730039;83;21510;-86
2021/11/04 04:36:57;;;;;;;19.48;11.63;;;;;;;9.56;80.34;99084.13;1729998;83;21003;-86
2021/11/04 04:39:23;;;;;;;18.55;11.83;;;;;;;9.56;80.38;99083.30;1739567;81;20979;-86
2021/11/04 04:41:49;;;;;;;24.23;16.85;;;;;;;9.54;80.41;99073.66;1760046;81;21019;-86
2021/11/04 04:44:15;;;;;;;23.45;12.58;;;;;;;9.54;80.44;99070.17;1760430;81;21130;-86
2021/11/04 04:46:41;;;;;;;19.15;11.45;;;;;;;9.52;80.50;99070.39;1759918;81;20958;-86
2021/11/04 04:49:07;;;;;;;21.05;11.48;;;;;;;9.52;80.53;99071.72;1760383;81;21475;-86
2021/11/04 04:51:33;;;;;;;19.05;10.88;;;;;;;9.51;80.57;99063.41;1759958;81;21018;-86
2021/11/04 04:53:59;;;;;;;17.48;10.88;;;;;;;9.50;80.61;99063.59;1759822;81;21002;-86
2021/11/04 04:56:25;;;;;;;18.25;11.90;;;;;;;9.50;80.68;99057.77;1760053;81;21585;-87
2021/11/04 04:58:51;;;;;;;18.50;11.45;;;;;;;9.48;80.74;99045.19;1760319;81;21432;-86
2021/11/04 05:01:17;;;;;;;19.05;11.05;;;;;;;9.47;80.82;99043.53;1760277;81;20986;-86
2021/11/04 05:03:43;;;;;;;24.37;12.68;;;;;;;9.47;80.88;99040.87;1760104;81;21050;-86
2021/11/04 05:06:09;;;;;;;18.52;11.35;;;;;;;9.46;80.92;99041.88;1760121;81;21053;-86
2021/11/04 05:08:35;;;;;;;20.30;12.07;;;;;;;9.45;80.98;99026.95;1758448;81;21132;-86
2021/11/04 05:11:01;;;;;;;26.52;13.10;;;;;;;9.44;81.05;99026.63;1729920;83;21045;-86
2021/11/04 05:13:27;;;;;;;22.30;11.95;;;;;;;9.44;81.11;99017.31;1730243;82;21053;-86
2021/11/04 05:15:53;;;;;;;18.27;11.50;;;;;;;9.43;81.17;99013.00;1730128;82;21046;-86
2021/11/04 05:18:19;;;;;;;21.30;13.28;;;;;;;9.41;81.22;99003.59;1730243;82;21092;-86
2021/11/04 05:20:45;;;;;;;19.62;12.13;;;;;;;9.43;81.28;99007.68;1729913;82;21848;-86
2021/11/04 05:23:11;;;;;;;19.77;11.68;;;;;;;9.42;81.34;99000.73;1730218;81;20999;-86
2021/11/04 05:25:37;;;;;;;20.15;11.53;;;;;;;9.40;81.40;98998.77;1724403;82;21707;-86
2021/11/04 05:28:03;;;;;;;21.15;12.33;;;;;;;9.38;81.46;98990.68;1724512;83;21058;-86
2021/11/04 05:30:30;;;;;;;20.60;12.15;;;;;;;9.37;81.54;98987.19;1724569;83;21085;-87
2021/11/04 05:32:56;;;;;;;16.95;11.20;;;;;;;9.36;81.62;98985.54;1724396;82;21480;-86
2021/11/04 05:35:22;;;;;;;24.27;12.93;;;;;;;9.36;81.67;98988.70;1724803;83;21010;-86
2021/11/04 05:37:48;;;;;;;17.80;12.20;;;;;;;9.33;81.73;98980.62;1724614;82;21077;-86
2021/11/04 05:40:14;;;;;;;18.55;12.20;;;;;;;9.29;81.79;98968.72;1731412;81;21538;-86
2021/11/04 05:42:41;;;;;;;17.95;12.15;;;;;;;9.29;81.87;98968.72;1732883;81;21550;-86
2021/11/04 05:45:07;;;;;;;19.67;13.72;;;;;;;9.27;81.92;98978.75;1732758;82;21040;-86
2021/11/04 05:47:33;;;;;;;18.55;12.88;;;;;;;9.24;81.98;98969.84;1733876;81;21026;-87
2021/11/04 05:49:59;;;;;;;20.17;13.15;;;;;;;9.24;82.06;98968.51;1732710;82;21018;-87
2021/11/04 05:52:25;;;;;;;19.65;13.62;;;;;;;9.22;82.13;98964.41;1732914;82;21014;-86
2021/11/04 05:54:56;;;;;;;20.43;13.28;;;;;;;9.22;82.22;98963.87;1732865;82;21050;-86
2021/11/04 05:57:19;;;;;;;20.95;12.60;;;;;;;9.22;82.30;98968.41;1731781;81;21180;-86
2021/11/04 05:59:45;;;;;;;21.07;11.88;;;;;;;9.22;82.36;98963.87;1732848;82;21058;-87
2021/11/04 06:02:11;;;;;;;20.77;12.55;;;;;;;9.20;82.43;98956.61;1732976;82;20911;-86
2021/11/04 06:04:42;;;;;;;26.52;12.20;;;;;;;9.20;82.49;98961.94;1732971;82;21544;-86
2021/11/04 06:07:05;;;;;;;34.45;21.65;;;;;;;9.19;82.56;98954.96;1732754;81;21116;-86
2021/11/04 06:09:31;;;;;;;16.90;12.43;;;;;;;9.20;82.63;98950.47;1749087;81;21118;-86
2021/11/04 06:11:59;;;;;;;16.55;12.03;;;;;;;9.19;82.70;98944.33;1763346;81;21025;-86
2021/11/04 06:14:25;;;;;;;20.37;14.00;;;;;;;9.17;82.78;98933.08;1763597;80;21037;-86
2021/11/04 06:16:51;;;;;;;23.12;15.25;;;;;;;9.17;82.84;98934.91;1763073;80;21061;-86
2021/11/04 06:19:19;;;;;;;20.85;13.15;;;;;;;9.16;82.94;98931.42;1761489;80;21006;-85
2021/11/04 06:21:45;;;;;;;25.12;16.73;;;;;;;9.15;83.01;98920.46;1754885;79;21660;-86
2021/11/04 06:24:11;;;;;;;23.70;15.85;;;;;;;9.15;83.08;98924.45;1759924;81;21621;-87
2021/11/04 06:26:37;;;;;;;20.90;12.65;;;;;;;9.15;83.16;98920.46;1760478;81;21007;-86
2021/11/04 06:29:04;;;;;;;16.57;12.73;;;;;;;9.14;83.21;98917.52;1760285;81;21030;-86
2021/11/04 06:31:31;;;;;;;17.27;11.55;;;;;;;9.14;83.29;98917.52;1760356;81;21003;-87
2021/11/04 06:33:57;;;;;;;15.98;10.68;;;;;;;9.14;83.35;98908.20;1760290;81;21150;-86
2021/11/04 06:36:23;;;;;;;18.25;11.15;;;;;;;9.16;83.41;98905.33;1760256;81;21042;-86
2021/11/04 06:38:51;;;;;;;20.80;10.88;;;;;;;9.17;83.47;98894.52;1760392;81;20995;-86
2021/11/04 06:41:17;;;;;;;19.90;12.60;;;;;;;9.17;83.55;98894.52;1760148;81;21027;-86
2021/11/04 06:43:44;;;;;;;18.62;11.68;;;;;;;9.17;83.61;98893.18;1760355;81;21017;-87
2021/11/04 06:46:12;;;;;;;19.07;12.20;;;;;;;9.17;83.65;98890.52;1760052;81;21547;-87
2021/11/04 06:48:43;;;;;;;16.65;12.00;;;;;;;9.19;83.71;98888.98;1760447;81;21002;-86
2021/11/04 06:51:12;;;;;;;23.50;13.32;;;;;;;9.19;83.75;98880.48;1760069;81;20995;-86
2021/11/04 06:53:46;;;;;;;17.55;11.08;;;;;;;9.20;83.81;98880.81;1743790;81;21071;-85
2021/11/04 06:56:12;;;;;;;18.98;11.83;;;;;;;9.22;83.86;98873.44;1729534;83;21500;-86
2021/11/04 06:58:38;;;;;;;19.32;11.57;;;;;;;9.26;83.90;98877.85;1730103;81;21910;-86
2021/11/04 07:01:14;;;;;;;22.17;13.08;;;;;;;9.27;83.95;98867.53;1729983;82;21019;-86
2021/11/04 07:03:58;;;;;;;19.10;10.80;;;;;;;9.27;84.01;98864.37;1729902;82;21011;-86
2021/11/04 07:06:29;;;;;;;19.50;12.55;;;;;;;9.28;84.08;98858.03;1728606;83;21054;-86
2021/11/04 07:08:58;;;;;;;20.08;13.25;;;;;;;9.31;84.13;98856.81;1759994;81;21514;-86
2021/11/04 07:11:25;;;;;;;23.47;12.75;;;;;;;9.32;84.16;98854.47;1758320;81;21011;-86
2021/11/04 07:13:52;;;;;;;18.05;12.37;;;;;;;9.33;84.23;98856.09;1736047;80;21541;-86
2021/11/04 07:16:24;;;;;;;21.65;14.00;;;;;;;9.33;84.26;98838.29;1764632;80;21097;-85
2021/11/04 07:18:48;;;;;;;20.32;13.20;;;;;;;9.32;84.32;98840.63;1790417;79;21073;-86
2021/11/04 07:21:43;;;;;;;22.77;12.05;;;;;;;9.33;84.34;98840.95;1771032;80;21014;-86
2021/11/04 07:24:11;;;;;;;19.98;11.95;;;;;;;9.35;84.41;98853.56;1759885;81;21161;-85
2021/11/04 07:26:41;;;;;;;19.02;11.80;;;;;;;9.35;84.44;98842.92;1741753;80;21007;-86
2021/11/04 07:29:09;;;;;;;19.70;12.15;;;;;;;9.36;84.49;98838.39;1741285;81;21058;-86
2021/11/04 07:31:40;;;;;;;20.08;13.03;;;;;;;9.36;84.53;98837.06;1760171;80;21495;-87
2021/11/04 07:34:10;;;;;;;20.00;11.90;;;;;;;9.36;84.56;98838.39;1757653;81;21061;-87
2021/11/04 07:36:38;;;;;;;28.83;14.25;;;;;;;9.34;84.60;98827.97;1756661;81;26036;-86
2021/11/04 07:39:05;;;;;;;20.12;13.03;;;;;;;9.35;84.63;98830.13;1758017;81;21577;-87
2021/11/04 07:41:33;;;;;;;26.35;13.53;;;;;;;9.33;84.66;98840.95;1760822;80;21249;-87
2021/11/04 07:44:00;;;;;;;18.37;12.43;;;;;;;9.33;84.72;98834.30;1758644;80;21042;-86
2021/11/04 07:46:26;;;;;;;21.82;13.10;;;;;;;9.33;84.74;98836.14;1754898;80;21501;-87
2021/11/04 07:48:52;;;;;;;19.70;12.35;;;;;;;9.31;84.78;98835.02;1752259;80;22166;-87
2021/11/04 07:51:18;;;;;;;25.55;13.53;;;;;;;9.32;84.83;98824.67;1751606;80;21046;-87
2021/11/04 07:53:44;;;;;;;22.90;13.48;;;;;;;9.31;84.87;98816.41;1765236;80;21049;-86
2021/11/04 07:56:11;;;;;;;22.15;12.90;;;;;;;9.30;84.88;98798.80;1767075;80;21007;-86
2021/11/04 07:58:38;;;;;;;21.52;13.60;;;;;;;9.30;84.93;98808.10;1753347;80;20995;-87
2021/11/04 08:01:04;;;;;;;23.02;13.70;;;;;;;9.32;84.99;98804.72;1756278;80;21111;-86
2021/11/04 08:03:32;;;;;;;18.27;12.85;;;;;;;9.32;84.98;98804.72;1756249;80;21063;-86
2021/11/04 08:05:58;;;;;;;25.20;13.32;;;;;;;9.34;85.04;98797.88;1759056;80;21057;-87
2021/11/04 08:08:24;;;;;;;18.75;12.80;;;;;;;9.32;85.06;98795.41;1757479;80;21018;-87
2021/11/04 08:10:54;;;;;;;18.25;13.13;;;;;;;9.33;85.09;98790.41;1762605;80;21093;-86
2021/11/04 08:13:21;;;;;;;20.30;10.82;;;;;;;9.33;85.12;98780.27;1754787;80;21978;-85
2021/11/04 08:15:47;;;;;;;20.20;13.35;;;;;;;9.33;85.17;98775.78;1750609;80;21081;-86
2021/11/04 08:18:15;;;;;;;19.82;12.40;;;;;;;9.33;85.19;98764.31;1764070;80;20994;-86
2021/11/04 08:20:41;;;;;;;20.95;11.50;;;;;;;9.31;85.21;98760.54;1766123;80;21110;-85
2021/11/04 08:23:11;;;;;;;17.32;12.03;;;;;;;9.30;85.25;98752.23;1758795;80;21061;-86
2021/11/04 08:25:37;;;;;;;19.05;12.70;;;;;;;9.29;85.25;98739.95;1763102;80;21785;-86
2021/11/04 08:28:03;;;;;;;20.82;12.90;;;;;;;9.27;85.26;98728.71;1759405;80;21486;-86
2021/11/04 08:30:29;;;;;;;16.30;11.40;;;;;;;9.27;85.26;98727.38;1759955;80;21534;-86
2021/11/04 08:32:57;;;;;;;19.37;11.70;;;;;;;9.25;85.27;98724.11;1768794;80;21545;-85
2021/11/04 08:35:24;;;;;;;19.07;11.48;;;;;;;9.25;85.29;98721.45;1757144;80;21026;-86
2021/11/04 08:37:50;;;;;;;17.20;11.38;;;;;;;9.24;85.31;98721.14;1768586;80;21763;-84
2021/11/04 08:40:16;;;;;;;19.12;11.88;;;;;;;9.21;85.32;98716.23;1760209;80;21006;-86
2021/11/04 08:42:42;;;;;;;19.55;11.15;;;;;;;9.19;85.33;98703.63;1758215;80;20906;-85
2021/11/04 08:45:09;;;;;;;17.95;12.10;;;;;;;9.17;85.35;98705.69;1763837;80;21069;-85
2021/11/04 08:47:35;;;;;;;17.52;11.68;;;;;;;9.16;85.37;98685.42;1763191;80;21056;-85
2021/11/04 08:50:03;;;;;;;20.25;12.85;;;;;;;9.15;85.35;98690.42;1765867;80;21154;-85
2021/11/04 08:52:29;;;;;;;22.58;13.08;;;;;;;9.14;85.39;98673.35;1761313;80;21026;-84
2021/11/04 08:54:55;;;;;;;19.85;12.88;;;;;;;9.11;85.44;98665.28;1759195;80;21085;-85
2021/11/04 08:57:21;;;;;;;21.35;14.47;;;;;;;9.09;85.45;98672.63;1747701;80;21049;-84
2021/11/04 08:59:48;;;;;;;27.35;16.17;;;;;;;9.06;85.48;98674.36;1763660;80;21026;-84
2021/11/04 09:02:15;;;;;;;31.27;18.00;;;;;;;9.03;85.60;98658.82;1760009;80;21158;-84
2021/11/04 09:04:44;;;;;;;23.45;14.68;;;;;;;9.03;85.60;98658.82;1745293;81;20991;-83
2021/11/04 09:07:13;;;;;;;23.15;14.05;;;;;;;9.03;85.56;98660.97;1762562;80;21145;-83
2021/11/04 09:09:39;;;;;;;;;;;;;;;9.02;85.57;98651.85;1747414;80;21050;-84
2021/11/04 09:12:07;;;;;;;22.13;14.40;;;;;;;9.01;85.61;98647.55;1740267;80;20182;-84
2021/11/04 09:14:33;;;;;;;25.57;14.58;;;;;;;9.00;85.63;98641.95;1758985;80;22134;-84
2021/11/04 09:17:00;;;;;;;20.88;14.20;;;;;;;8.99;85.64;98640.30;1758123;81;21019;-85
2021/11/04 09:19:26;;;;;;;21.95;14.50;;;;;;;8.97;85.70;98643.15;1758697;81;21069;-84
2021/11/04 09:21:52;;;;;;;16.40;12.50;;;;;;;8.97;85.72;98626.41;1756900;80;20995;-83
2021/11/04 09:24:18;;;;;;;21.30;14.85;;;;;;;8.96;85.79;98608.30;1761884;80;21645;-82
2021/11/04 09:26:44;;;;;;;21.33;14.35;;;;;;;8.95;85.82;98616.47;1752565;80;21692;-82
2021/11/04 09:29:10;;;;;;;22.07;14.80;;;;;;;8.94;85.88;98613.48;1763205;80;21022;-82
2021/11/04 09:31:36;;;;;;;24.30;14.55;;;;;;;8.93;85.93;98617.19;1762828;79;21021;-83
2021/11/04 09:34:02;;;;;;;20.80;15.05;;;;;;;8.92;85.97;98626.18;1749323;81;20998;-82
2021/11/04 09:36:29;;;;;;;20.23;14.23;;;;;;;8.92;85.99;98623.02;1750615;81;21061;-82
2021/11/04 09:38:59;;;;;;;20.37;13.70;;;;;;;8.94;86.05;98616.15;1762015;81;21153;-82
2021/11/04 09:41:26;;;;;;;21.30;13.95;;;;;;;8.94;86.09;98600.20;1753170;80;20995;-82
2021/11/04 09:43:52;;;;;;;23.50;15.08;;;;;;;8.96;86.11;98611.47;1749581;80;21491;-83
2021/11/04 09:46:18;;;;;;;21.00;13.93;;;;;;;8.96;86.15;98596.34;1726239;81;21050;-84
2021/11/04 09:48:44;;;;;;;21.48;14.28;;;;;;;8.97;86.17;98593.97;1746815;81;21101;-83
2021/11/04 09:51:10;;;;;;;20.20;14.18;;;;;;;9.01;86.21;98590.39;1753093;80;21369;-83
2021/11/04 09:53:36;;;;;;;21.93;13.43;;;;;;;9.08;86.25;98595.73;1762470;79;21004;-84
2021/11/04 09:56:03;;;;;;;20.17;14.15;;;;;;;9.14;86.28;98598.89;1763912;80;21038;-84
2021/11/04 09:58:32;;;;;;;22.70;14.20;;;;;;;9.17;86.31;98586.52;1762391;81;21010;-83
2021/11/04 10:01:19;;;;;;;22.87;14.07;;;;;;;9.22;86.35;98592.84;1733937;81;21041;-84
2021/11/04 10:03:46;;;;;;;21.77;14.43;;;;;;;9.26;86.37;98583.44;1715324;82;21547;-84
2021/11/04 10:06:29;;;;;;;23.05;14.63;;;;;;;9.29;86.41;98585.67;1719061;83;21079;-84
2021/11/04 10:08:58;;;;;;;20.20;13.55;;;;;;;9.33;86.44;98592.22;1687807;83;21039;-85
2021/11/04 10:11:30;;;;;;;19.75;14.20;;;;;;;9.34;86.46;98589.88;1687454;83;21016;-83
2021/11/04 10:14:02;;;;;;;21.82;13.78;;;;;;;9.37;86.50;98578.00;1699025;84;21077;-85
2021/11/04 10:16:28;;;;;;;32.67;22.67;;;;;;;9.37;86.53;98568.18;1711921;83;21108;-85
2021/11/04 10:18:54;;;;;;;67.90;37.70;;;;;;;9.39;86.56;98561.34;1693911;83;21694;-84
2021/11/04 10:21:26;;;;;;;154.97;102.42;;;;;;;9.41;86.58;98562.75;1713006;83;21056;-85
2021/11/04 10:23:52;;;;;;;71.62;54.50;;;;;;;9.42;86.61;98558.25;1688442;82;21023;-84
2021/11/04 10:26:22;;;;;;;86.45;73.62;;;;;;;9.44;86.63;98561.52;1685716;83;21028;-84
2021/11/04 10:28:51;;;;;;;54.53;49.03;;;;;;;9.45;86.67;98548.02;1686220;83;22029;-85
2021/11/04 10:31:19;;;;;;;22.48;16.82;;;;;;;9.48;86.68;98547.59;1707617;83;21052;-85
2021/11/04 10:33:51;;;;;;;17.67;14.35;;;;;;;9.51;86.71;98541.86;1729764;82;21056;-83
2021/11/04 10:36:24;;;;;;;19.05;12.58;;;;;;;9.55;86.73;98540.92;1689381;83;21037;-83
2021/11/04 10:38:55;;;;;;;17.52;12.80;;;;;;;9.60;86.76;98534.98;1714212;83;21023;-84
2021/11/04 10:41:34;;;;;;;19.50;13.43;;;;;;;9.64;86.78;98529.55;1719043;83;21270;-84
2021/11/04 10:44:11;;;;;;;23.00;15.90;;;;;;;9.66;86.79;98524.31;1718179;83;21031;-83
2021/11/04 10:46:49;;;;;;;18.55;14.05;;;;;;;9.70;86.83;98512.73;1718839;83;21046;-83
2021/11/04 10:49:16;;;;;;;15.53;12.07;;;;;;;9.75;86.85;98508.91;1711390;82;21690;-84
2021/11/04 10:51:42;;;;;;;20.12;14.00;;;;;;;9.79;86.88;98511.45;1714478;82;21038;-83
2021/11/04 10:54:13;;;;;;;19.98;14.18;;;;;;;9.84;86.92;98503.67;1721998;82;21064;-83
2021/11/04 10:56:41;;;;;;;19.07;14.03;;;;;;;9.86;86.90;98500.27;1715271;82;21068;-84
2021/11/04 10:59:13;;;;;;;77.82;40.23;;;;;;;9.90;86.92;98494.83;1716595;82;21023;-83
2021/11/04 11:01:42;;;;;;;73.10;37.98;;;;;;;9.95;86.92;98503.01;1718022;82;21073;-85
2021/11/04 11:04:17;;;;;;;27.77;17.32;;;;;;;9.96;86.94;98500.12;1711544;82;21080;-86
2021/11/04 11:06:52;;;;;;;38.83;25.75;;;;;;;9.95;86.92;98495.02;1715660;82;21708;-85
2021/11/04 11:09:24;;;;;;;43.83;25.55;;;;;;;9.96;86.94;98496.63;1715468;82;21045;-85
2021/11/04 11:11:53;;;;;;;70.90;38.58;;;;;;;9.97;86.98;98488.45;1720098;82;21028;-85
2021/11/04 11:14:23;;;;;;;73.12;38.67;;;;;;;9.98;86.96;98475.95;1720534;82;21323;-85
2021/11/04 11:16:54;;;;;;;32.60;21.25;;;;;;;9.99;87.00;98460.28;1718669;82;21072;-85
2021/11/04 11:19:29;;;;;;;43.98;26.65;;;;;;;10.00;87.00;98461.89;1713883;82;21785;-84
2021/11/04 11:21:55;;;;;;;61.70;35.58;;;;;;;10.02;87.03;98453.20;1724844;82;21040;-87
2021/11/04 11:24:40;;;;;;;34.05;21.80;;;;;;;10.05;87.02;98444.77;1728418;82;21029;-82
2021/11/04 11:27:13;;;;;;;21.65;16.42;;;;;;;10.07;87.04;98422.73;1710146;82;21068;-82